Time;durP1;ratioP1;P1;durP2;ratioP2;P2;SDS_P1;SDS_P2;PMS_P1;PMS_P2;Temp;Humidity;BMP_temperature;BMP_pressure;BME280_temperature;BME280_humidity;BME280_pressure;Samples;Min_cycle;Max_cycle;Signal;HPM_P1;HPM_P2
2023/05/01 00:01:05;;;;;;;18.15;7.43;;;;;;;12.91;68.17;100281.56;5000668;28;20052;-44
2023/05/01 00:03:32;;;;;;;17.38;6.95;;;;;;;12.91;67.47;100277.25;4999636;28;20058;-48
2023/05/01 00:06:00;;;;;;;18.42;6.60;;;;;;;12.91;68.73;100274.63;5002390;28;20643;-43
2023/05/01 00:08:27;;;;;;;18.52;7.43;;;;;;;12.92;68.34;100272.88;4995171;28;20636;-48
2023/05/01 00:10:54;;;;;;;18.10;7.45;;;;;;;12.91;68.08;100281.56;4999118;28;20548;-49
2023/05/01 00:13:23;;;;;;;17.17;6.35;;;;;;;12.89;68.08;100278.97;5002486;28;20054;-45
2023/05/01 00:15:50;;;;;;;17.73;9.52;;;;;;;12.89;68.03;100278.97;4998359;28;20510;-49
2023/05/01 00:18:17;;;;;;;15.98;5.50;;;;;;;12.88;69.09;100268.59;4993958;28;20049;-48
2023/05/01 00:20:43;;;;;;;16.63;7.13;;;;;;;12.88;68.99;100274.66;5002271;28;20096;-44
2023/05/01 00:23:11;;;;;;;20.77;7.65;;;;;;;12.90;68.24;100259.06;5005140;28;20073;-42
2023/05/01 00:25:38;;;;;;;18.63;6.78;;;;;;;12.89;68.93;100262.50;4999841;28;20112;-46
2023/05/01 00:28:05;;;;;;;16.52;8.18;;;;;;;12.89;67.78;100258.19;5003111;28;20128;-49
2023/05/01 00:30:32;;;;;;;21.77;7.43;;;;;;;12.85;68.39;100252.16;5001617;28;20041;-46
2023/05/01 00:33:00;;;;;;;16.25;6.13;;;;;;;12.82;68.68;100246.97;4995422;28;20045;-45
2023/05/01 00:35:28;;;;;;;19.92;7.00;;;;;;;12.79;68.68;100247.00;4998104;28;20084;-42
2023/05/01 00:37:55;;;;;;;19.00;6.68;;;;;;;12.76;68.34;100241.81;4995362;28;20045;-47
2023/05/01 00:40:22;;;;;;;18.92;6.40;;;;;;;12.72;68.79;100234.94;4950789;28;20054;-47
2023/05/01 00:42:48;;;;;;;19.88;8.15;;;;;;;12.67;68.54;100227.16;4986512;28;20504;-43
2023/05/01 00:45:15;;;;;;;18.13;6.43;;;;;;;12.62;68.09;100225.47;4998969;28;20443;-41
2023/05/01 00:47:41;;;;;;;16.98;7.60;;;;;;;12.57;68.86;100226.38;5002980;28;20492;-45
2023/05/01 00:50:09;;;;;;;14.88;6.03;;;;;;;12.53;68.42;100224.69;5004227;28;20041;-44
2023/05/01 00:52:36;;;;;;;16.08;6.38;;;;;;;12.46;68.93;100215.22;5000933;28;20068;-47
2023/05/01 00:55:04;;;;;;;18.23;6.72;;;;;;;12.42;68.35;100208.31;5004697;28;20056;-45
2023/05/01 00:57:31;;;;;;;15.18;6.60;;;;;;;12.39;69.51;100210.97;5005223;28;20062;-43
2023/05/01 00:59:58;;;;;;;17.83;6.53;;;;;;;12.35;69.42;100215.31;5001587;28;20161;-43
2023/05/01 01:02:26;;;;;;;17.80;8.35;;;;;;;12.30;68.56;100212.72;5003009;28;20545;-42
2023/05/01 01:04:53;;;;;;;17.02;6.57;;;;;;;12.28;69.57;100218.81;5000781;28;20048;-47
2023/05/01 01:07:35;;;;;;;20.20;7.20;;;;;;;12.20;69.84;100211.09;5002287;28;20109;-47
2023/05/01 01:13:13;;;;;;;20.02;7.35;;;;;;;12.05;69.36;100196.44;5001809;28;20415;-45
2023/05/01 01:18:29;;;;;;;20.00;6.70;;;;;;;12.01;69.99;100205.97;5043155;27;20948;-45
2023/05/01 01:21:14;;;;;;;18.38;8.13;;;;;;;11.94;70.10;100193.91;5017106;28;20092;-44
2023/05/01 01:32:13;;;;;;;19.80;6.30;;;;;;;11.76;70.11;100185.34;5047652;27;20388;-45
2023/05/01 01:34:48;;;;;;;15.98;6.30;;;;;;;11.74;70.63;100181.91;5006670;28;20042;-42
2023/05/01 01:40:00;;;;;;;16.13;6.05;;;;;;;11.70;69.81;100180.22;5053950;28;20430;-48
2023/05/01 01:42:35;;;;;;;16.05;7.32;;;;;;;11.66;70.56;100175.91;5016651;28;20522;-43
2023/05/01 01:45:09;;;;;;;18.02;6.32;;;;;;;11.64;71.11;100170.72;5015930;28;21536;-45
2023/05/01 01:47:40;;;;;;;16.30;6.05;;;;;;;11.62;70.44;100166.41;5015697;28;20151;-46
2023/05/01 01:50:10;;;;;;;17.10;5.93;;;;;;;11.55;72.54;100166.44;5017595;28;20053;-43
2023/05/01 01:52:40;;;;;;;13.23;5.30;;;;;;;11.56;71.28;100162.13;5015320;28;20069;-45
2023/05/01 01:55:10;;;;;;;14.20;4.28;;;;;;;11.52;71.85;100166.44;5012808;28;20077;-45
2023/05/01 01:57:39;;;;;;;10.88;4.85;;;;;;;11.55;71.23;100160.41;5015508;28;20069;-43
2023/05/01 02:00:09;;;;;;;13.73;5.60;;;;;;;11.57;71.55;100159.53;5018538;28;20096;-43
2023/05/01 02:02:38;;;;;;;13.52;6.00;;;;;;;11.56;72.33;100160.38;5010421;28;20885;-41
2023/05/01 02:05:07;;;;;;;12.50;5.03;;;;;;;11.59;72.27;100161.22;5016149;28;20050;-46
2023/05/01 02:07:38;;;;;;;13.68;4.63;;;;;;;11.59;72.43;100151.72;5012439;28;20435;-48
2023/05/01 02:10:08;;;;;;;12.57;5.00;;;;;;;11.62;71.69;100146.50;5017471;28;20521;-44
2023/05/01 02:12:35;;;;;;;;;;;;;;;11.51;73.61;100150.88;5016082;28;20057;-49
2023/05/01 02:15:04;;;;;;;12.18;5.10;;;;;;;11.60;73.31;100152.56;5010640;28;19965;-45
2023/05/01 02:17:32;;;;;;;17.35;6.40;;;;;;;11.64;72.72;100149.09;5019796;28;20127;-43
2023/05/01 02:20:00;;;;;;;16.75;5.80;;;;;;;11.67;72.35;100139.56;5017770;28;20050;-41
2023/05/01 02:22:28;;;;;;;19.70;6.18;;;;;;;11.70;72.55;100141.28;5013859;28;20122;-47
2023/05/01 02:24:57;;;;;;;13.88;4.72;;;;;;;11.69;71.87;100139.56;5014742;28;20095;-43
2023/05/01 02:27:31;;;;;;;17.00;5.50;;;;;;;11.68;72.52;100140.41;5012629;28;20074;-45
2023/05/01 02:29:57;;;;;;;14.88;4.65;;;;;;;11.66;72.86;100140.41;5017894;28;20076;-45
2023/05/01 02:32:25;;;;;;;14.48;4.53;;;;;;;11.65;71.91;100135.28;5017842;28;20049;-44
2023/05/01 02:34:52;;;;;;;17.60;5.18;;;;;;;11.62;71.71;100136.13;5012725;28;20125;-46
2023/05/01 02:37:19;;;;;;;15.40;5.53;;;;;;;11.62;71.12;100137.88;4998557;28;20129;-45
2023/05/01 02:39:46;;;;;;;13.70;5.18;;;;;;;11.59;72.43;100136.16;4997764;28;20084;-48
2023/05/01 02:42:15;;;;;;;18.80;4.63;;;;;;;11.56;72.37;100142.22;4999483;28;20080;-43
2023/05/01 02:44:52;;;;;;;16.98;4.75;;;;;;;11.50;72.26;100142.25;4998818;28;20156;-39
2023/05/01 02:47:22;;;;;;;14.13;5.15;;;;;;;11.49;71.97;100147.44;5000840;28;20045;-45
2023/05/01 02:49:50;;;;;;;15.55;4.32;;;;;;;11.44;71.24;100142.28;4994800;28;20042;-45
2023/05/01 02:52:18;;;;;;;13.85;6.00;;;;;;;11.40;71.85;100141.44;4985435;28;21306;-43
2023/05/01 02:54:45;;;;;;;16.40;5.43;;;;;;;11.37;71.35;100146.63;4986341;28;20054;-45
2023/05/01 02:57:12;;;;;;;14.52;5.22;;;;;;;11.33;71.47;100144.94;4986595;28;20125;-44
2023/05/01 02:59:39;;;;;;;16.13;4.95;;;;;;;11.30;71.77;100139.75;4987408;28;20050;-45
2023/05/01 03:02:06;;;;;;;14.32;5.25;;;;;;;11.29;72.52;100138.88;4986770;28;20498;-45
2023/05/01 03:04:33;;;;;;;13.25;5.13;;;;;;;11.28;71.59;100144.94;4979297;28;20053;-45
2023/05/01 03:07:00;;;;;;;13.20;5.55;;;;;;;11.27;71.35;100140.63;4986526;28;20054;-43
2023/05/01 03:09:26;;;;;;;10.20;4.65;;;;;;;11.25;71.39;100137.16;4987735;28;20042;-47
2023/05/01 03:11:53;;;;;;;13.25;5.40;;;;;;;11.27;72.05;100134.56;4985037;28;20109;-42
2023/05/01 03:14:19;;;;;;;14.90;6.18;;;;;;;11.26;72.56;100132.84;4983627;28;20153;-45
2023/05/01 03:16:46;;;;;;;14.10;5.32;;;;;;;11.28;71.67;100129.38;4985873;28;20461;-43
2023/05/01 03:19:13;;;;;;;13.63;4.85;;;;;;;11.27;71.90;100132.84;4986041;28;20136;-47
2023/05/01 03:21:39;;;;;;;16.13;5.43;;;;;;;11.25;72.48;100134.56;4986407;28;20124;-46
2023/05/01 03:24:06;;;;;;;18.45;4.82;;;;;;;11.24;71.73;100127.69;4985695;28;20144;-45
2023/05/01 03:26:33;;;;;;;17.70;5.75;;;;;;;11.23;71.91;100125.97;4984220;28;20039;-49
2023/05/01 03:29:00;;;;;;;9.57;3.53;;;;;;;11.23;72.15;100122.50;4981448;28;20050;-46
2023/05/01 03:31:26;;;;;;;13.77;4.65;;;;;;;11.22;71.78;100119.06;4982400;28;20125;-44
2023/05/01 03:33:53;;;;;;;18.05;5.78;;;;;;;11.26;72.13;100120.75;4987326;28;20137;-44
2023/05/01 03:36:21;;;;;;;12.85;4.65;;;;;;;11.25;72.47;100121.59;4982584;28;20097;-48
2023/05/01 03:38:47;;;;;;;13.45;4.45;;;;;;;11.21;72.66;100119.91;4985912;28;20168;-45
2023/05/01 03:41:14;;;;;;;15.40;4.70;;;;;;;11.19;72.39;100113.88;4981155;28;20663;-45
2023/05/01 03:43:41;;;;;;;15.20;4.78;;;;;;;11.15;72.13;100117.34;4983515;28;20749;-45
2023/05/01 03:46:07;;;;;;;13.82;4.47;;;;;;;11.12;71.44;100119.94;4984982;28;20128;-49
2023/05/01 03:48:34;;;;;;;13.90;4.68;;;;;;;11.10;72.49;100121.66;4983138;28;20042;-48
2023/05/01 03:51:01;;;;;;;17.05;5.15;;;;;;;11.08;72.22;100123.44;4983327;28;20046;-44
2023/05/01 03:53:28;;;;;;;13.35;4.97;;;;;;;11.08;72.03;100123.44;4982401;28;20082;-42
2023/05/01 03:55:54;;;;;;;14.35;5.45;;;;;;;11.09;71.95;100120.84;4984749;28;20876;-47
2023/05/01 03:58:21;;;;;;;15.70;5.22;;;;;;;11.09;72.69;100117.38;4979523;28;20042;-45
2023/05/01 04:00:49;;;;;;;14.55;5.60;;;;;;;11.08;72.08;100121.69;4991375;28;20081;-42
2023/05/01 04:03:16;;;;;;;12.70;4.68;;;;;;;11.10;72.11;100122.53;4983552;28;20073;-43
2023/05/01 04:05:43;;;;;;;14.55;5.47;;;;;;;11.11;72.17;100128.59;4984389;28;20054;-45
2023/05/01 04:08:10;;;;;;;15.15;5.50;;;;;;;11.11;72.34;100123.41;4980886;28;20043;-42
2023/05/01 04:10:36;;;;;;;13.75;4.93;;;;;;;11.13;72.41;100126.84;4984236;28;20062;-44
2023/05/01 04:13:03;;;;;;;13.63;5.47;;;;;;;11.12;72.84;100125.13;4980512;28;20145;-43
2023/05/01 04:15:30;;;;;;;16.65;5.35;;;;;;;11.13;72.03;100127.72;4984322;28;20050;-46
2023/05/01 04:17:57;;;;;;;13.25;5.45;;;;;;;11.14;72.05;100128.56;4982117;28;20422;-42
2023/05/01 04:20:24;;;;;;;17.73;4.82;;;;;;;11.15;72.89;100120.78;4986198;28;20434;-43
2023/05/01 04:22:50;;;;;;;16.13;5.18;;;;;;;11.18;72.80;100130.31;4983207;28;20046;-42
2023/05/01 04:25:17;;;;;;;15.95;5.72;;;;;;;11.16;72.68;100129.44;4985433;28;20046;-44
2023/05/01 04:27:43;;;;;;;15.40;4.85;;;;;;;11.18;73.39;100125.13;4987574;28;20082;-45
2023/05/01 04:30:10;;;;;;;15.05;4.68;;;;;;;11.17;72.85;100126.84;4985092;28;20042;-43
2023/05/01 04:32:37;;;;;;;17.30;5.32;;;;;;;11.18;72.00;100125.13;4983061;28;20046;-41
2023/05/01 04:35:04;;;;;;;16.35;5.22;;;;;;;11.17;72.65;100120.78;4986869;28;20038;-45
2023/05/01 04:37:30;;;;;;;16.00;5.65;;;;;;;11.16;72.64;100124.25;4980113;28;20089;-48
2023/05/01 04:39:57;;;;;;;14.40;5.78;;;;;;;11.15;73.01;100119.94;4979419;28;20104;-43
2023/05/01 04:42:30;;;;;;;13.50;4.93;;;;;;;11.11;72.26;100118.25;4981811;28;20050;-43
2023/05/01 04:45:00;;;;;;;15.90;4.70;;;;;;;11.09;73.06;100126.00;4980109;28;20070;-45
2023/05/01 04:47:27;;;;;;;12.88;4.68;;;;;;;11.05;72.50;100122.56;4982269;28;20050;-46
2023/05/01 04:49:54;;;;;;;15.43;4.50;;;;;;;11.05;73.16;100124.31;4980774;28;20062;-42
2023/05/01 04:52:21;;;;;;;9.23;3.17;;;;;;;11.03;72.52;100129.50;4985576;28;20042;-42
2023/05/01 04:54:48;;;;;;;12.40;5.22;;;;;;;11.04;72.98;100138.97;4984565;28;20074;-40
2023/05/01 04:57:15;;;;;;;11.85;4.65;;;;;;;11.03;72.50;100137.25;4984263;28;20050;-41
2023/05/01 04:59:42;;;;;;;11.90;5.72;;;;;;;11.03;73.35;100142.44;4981311;28;20070;-44
2023/05/01 05:02:08;;;;;;;13.18;4.88;;;;;;;11.04;72.89;100153.66;4981379;28;20080;-45
2023/05/01 05:04:35;;;;;;;15.00;5.78;;;;;;;11.04;71.84;100151.94;4981294;28;20615;-41
2023/05/01 05:07:02;;;;;;;15.88;4.97;;;;;;;11.05;72.09;100151.06;4984604;28;20046;-44
2023/05/01 05:09:28;;;;;;;14.68;5.40;;;;;;;11.05;72.24;100152.81;4983920;28;20046;-45
2023/05/01 05:11:55;;;;;;;18.13;4.70;;;;;;;11.04;72.78;100153.66;4983664;28;20062;-42
2023/05/01 05:14:21;;;;;;;15.23;4.50;;;;;;;11.04;73.10;100151.94;4980750;28;20499;-44
2023/05/01 05:16:48;;;;;;;8.55;3.83;;;;;;;11.03;73.16;100150.22;4983391;28;20042;-47
2023/05/01 05:19:15;;;;;;;12.73;4.75;;;;;;;11.03;73.21;100163.19;4984385;28;20519;-44
2023/05/01 05:21:42;;;;;;;13.52;4.00;;;;;;;11.07;72.27;100152.81;4985903;28;20054;-41
2023/05/01 05:24:08;;;;;;;13.77;3.88;;;;;;;11.06;73.19;100154.53;4985649;28;20129;-47
2023/05/01 05:26:35;;;;;;;15.77;4.03;;;;;;;11.09;73.25;100162.31;4985129;28;20557;-45
2023/05/01 05:29:02;;;;;;;13.70;4.68;;;;;;;11.11;73.00;100159.72;4986615;28;20498;-42
2023/05/01 05:31:28;;;;;;;15.20;4.30;;;;;;;11.10;73.01;100157.97;4985166;28;20142;-45
2023/05/01 05:33:55;;;;;;;10.05;4.00;;;;;;;11.11;72.86;100162.31;4982984;28;20141;-52
2023/05/01 05:36:22;;;;;;;9.90;4.03;;;;;;;11.10;72.96;100160.56;4983621;28;20081;-46
2023/05/01 05:38:48;;;;;;;9.68;3.53;;;;;;;11.10;72.98;100163.16;4980699;28;20088;-44
2023/05/01 05:41:16;;;;;;;14.07;3.92;;;;;;;11.11;72.16;100160.56;4971847;28;20057;-48
2023/05/01 05:43:43;;;;;;;14.75;3.67;;;;;;;11.11;72.96;100159.72;4975596;28;20085;-40
2023/05/01 05:46:10;;;;;;;12.13;4.13;;;;;;;11.13;72.93;100163.16;4970742;28;20050;-43
2023/05/01 05:48:37;;;;;;;10.95;4.35;;;;;;;11.17;72.50;100170.03;4975092;28;20520;-44
2023/05/01 05:51:03;;;;;;;9.38;4.20;;;;;;;11.19;72.91;100173.50;4973598;28;20070;-47
2023/05/01 05:53:30;;;;;;;12.27;4.20;;;;;;;11.22;72.87;100178.69;4972431;28;20046;-46
2023/05/01 05:55:57;;;;;;;11.70;3.45;;;;;;;11.23;73.10;100185.59;4972926;28;20058;-44
2023/05/01 05:58:23;;;;;;;11.68;4.25;;;;;;;11.24;73.00;100176.94;4977921;28;20459;-44
2023/05/01 06:00:52;;;;;;;9.15;3.17;;;;;;;11.25;71.93;100183.00;4980633;28;20045;-46
2023/05/01 06:03:18;;;;;;;10.60;3.33;;;;;;;11.27;72.31;100187.31;4992121;28;20053;-44
2023/05/01 06:05:45;;;;;;;11.77;3.95;;;;;;;11.29;72.18;100180.38;4977052;28;20061;-48
2023/05/01 06:08:13;;;;;;;11.68;3.33;;;;;;;11.32;71.78;100177.75;4978541;28;20060;-45
2023/05/01 06:10:42;;;;;;;14.82;4.28;;;;;;;11.34;71.94;100176.91;4976180;28;20057;-41
2023/05/01 06:13:10;;;;;;;13.45;3.58;;;;;;;11.37;73.03;100184.66;4991823;28;20077;-45
2023/05/01 06:15:40;;;;;;;14.27;4.20;;;;;;;11.39;73.04;100182.94;4980754;28;20075;-48
2023/05/01 06:18:07;;;;;;;13.40;4.85;;;;;;;11.43;72.92;100179.47;4981310;28;20046;-45
2023/05/01 06:20:34;;;;;;;10.52;3.95;;;;;;;11.44;72.71;100183.78;4978767;28;20053;-47
2023/05/01 06:23:02;;;;;;;14.27;5.05;;;;;;;11.49;72.81;100182.03;4982193;28;20466;-47
2023/05/01 06:25:28;;;;;;;10.82;3.42;;;;;;;11.55;72.93;100182.00;4980608;28;20124;-45
2023/05/01 06:27:55;;;;;;;7.47;3.05;;;;;;;11.61;72.95;100194.06;4984411;28;20134;-42
2023/05/01 06:30:22;;;;;;;13.18;3.90;;;;;;;11.66;72.09;100183.69;4986014;28;20038;-47
2023/05/01 06:32:48;;;;;;;11.50;3.88;;;;;;;11.71;72.45;100184.50;4979854;28;20050;-45
2023/05/01 06:35:15;;;;;;;12.73;3.63;;;;;;;11.77;72.02;100183.63;4988355;28;20050;-43
2023/05/01 06:37:42;;;;;;;13.90;3.00;;;;;;;11.82;72.33;100187.03;4987064;28;20046;-40
2023/05/01 06:40:09;;;;;;;10.40;3.38;;;;;;;11.89;71.68;100190.47;4984738;28;20077;-44
2023/05/01 06:42:37;;;;;;;14.25;3.17;;;;;;;11.94;72.06;100178.34;4987328;28;20494;-46
2023/05/01 06:45:05;;;;;;;15.05;3.30;;;;;;;11.97;72.11;100186.09;4982692;28;20073;-44
2023/05/01 06:47:32;;;;;;;9.57;3.42;;;;;;;12.00;72.05;100191.28;4980243;28;20085;-42
2023/05/01 06:49:59;;;;;;;9.10;3.25;;;;;;;12.04;72.70;100189.53;4980060;28;20054;-42
2023/05/01 06:52:29;;;;;;;11.90;3.05;;;;;;;12.06;72.84;100188.66;4981235;28;20491;-45
2023/05/01 06:54:56;;;;;;;12.02;2.88;;;;;;;12.08;72.25;100189.53;4981569;28;20108;-42
2023/05/01 06:57:23;;;;;;;9.82;2.95;;;;;;;12.12;71.68;100197.31;4982436;28;20057;-44
2023/05/01 06:59:49;;;;;;;8.45;2.75;;;;;;;12.14;71.95;100203.34;4982183;28;20074;-45
2023/05/01 07:02:16;;;;;;;15.18;3.40;;;;;;;12.13;71.99;100202.47;4979931;28;20078;-44
2023/05/01 07:04:44;;;;;;;9.77;4.30;;;;;;;12.16;71.81;100204.19;4979778;28;20060;-45
2023/05/01 07:07:10;;;;;;;21.15;9.35;;;;;;;12.18;72.56;100197.25;4975985;28;20047;-44
2023/05/01 07:09:37;;;;;;;26.67;10.82;;;;;;;12.21;71.62;100199.81;4985021;28;20038;-44
2023/05/01 07:12:04;;;;;;;38.58;19.88;;;;;;;12.24;72.12;100197.22;4978605;28;20050;-49
2023/05/01 07:14:33;;;;;;;17.70;9.55;;;;;;;12.24;71.79;100197.22;4980352;28;20081;-46
2023/05/01 07:17:00;;;;;;;13.18;4.78;;;;;;;12.25;71.77;100204.13;4980926;28;20047;-46
2023/05/01 07:19:27;;;;;;;12.70;5.43;;;;;;;12.27;71.87;100197.19;4983688;28;20441;-44
2023/05/01 07:21:54;;;;;;;11.20;4.13;;;;;;;12.29;71.57;100211.00;4981029;28;20058;-43
2023/05/01 07:24:20;;;;;;;9.82;4.00;;;;;;;12.31;72.94;100198.88;4980819;28;20054;-43
2023/05/01 07:26:47;;;;;;;10.63;2.95;;;;;;;12.34;71.65;100204.03;4984434;28;20148;-44
2023/05/01 07:29:15;;;;;;;9.20;2.85;;;;;;;12.41;72.56;100214.41;4985339;28;20129;-45
2023/05/01 07:31:42;;;;;;;9.93;2.80;;;;;;;12.44;72.03;100214.38;4985368;28;20152;-48
2023/05/01 07:34:09;;;;;;;10.30;3.38;;;;;;;12.49;72.02;100211.75;4980638;28;20165;-45
2023/05/01 07:36:36;;;;;;;8.63;3.50;;;;;;;12.58;71.69;100211.66;4980914;28;20201;-43
2023/05/01 07:39:03;;;;;;;6.75;2.60;;;;;;;12.65;72.86;100217.66;4983281;28;20121;-48
2023/05/01 07:41:30;;;;;;;7.45;3.13;;;;;;;12.88;72.27;100217.47;4984093;28;20137;-44
2023/05/01 07:43:58;;;;;;;10.73;3.67;;;;;;;13.16;72.63;100213.72;4978926;28;20141;-43
2023/05/01 07:46:25;;;;;;;13.95;3.30;;;;;;;13.51;71.59;100215.06;4984504;28;20131;-42
2023/05/01 07:48:52;;;;;;;9.20;3.30;;;;;;;13.78;71.04;100218.19;4979373;28;20142;-44
2023/05/01 07:51:19;;;;;;;6.85;2.35;;;;;;;13.93;70.74;100221.47;4981952;28;20517;-50
2023/05/01 07:53:47;;;;;;;6.10;2.97;;;;;;;14.23;71.18;100220.19;4983537;28;20134;-47
2023/05/01 07:56:15;;;;;;;9.70;3.17;;;;;;;14.61;70.78;100225.66;4978146;28;20085;-44
2023/05/01 07:58:42;;;;;;;6.90;2.72;;;;;;;14.92;69.57;100226.06;4979400;28;20074;-45
2023/05/01 08:01:09;;;;;;;8.25;2.30;;;;;;;14.99;69.25;100225.03;4979607;28;20056;-43
2023/05/01 08:03:36;;;;;;;12.13;3.30;;;;;;;15.22;68.93;100222.00;4976451;28;20863;-41
2023/05/01 08:06:04;;;;;;;10.48;3.47;;;;;;;15.33;68.24;100223.56;4976483;28;20050;-47
2023/05/01 08:08:31;;;;;;;8.60;3.30;;;;;;;15.46;68.45;100221.53;4976898;28;20145;-52
2023/05/01 08:10:57;;;;;;;6.60;3.35;;;;;;;16.02;67.98;100233.47;4976659;28;20133;-44
2023/05/01 08:13:24;;;;;;;6.80;3.63;;;;;;;16.53;66.61;100228.81;4973054;28;20050;-47
2023/05/01 08:15:51;;;;;;;7.63;2.83;;;;;;;16.57;66.39;100238.28;4982370;28;20659;-46
2023/05/01 08:18:19;;;;;;;5.95;3.28;;;;;;;16.49;65.63;100229.78;4980807;28;20050;-45
2023/05/01 08:20:47;;;;;;;3.90;1.92;;;;;;;16.37;65.29;100228.31;4979134;28;20057;-45
2023/05/01 08:23:15;;;;;;;4.35;2.03;;;;;;;16.22;64.56;100224.31;4977885;28;20042;-49
2023/05/01 08:25:42;;;;;;;5.50;2.83;;;;;;;16.09;64.77;100227.22;4977568;28;20051;-45
2023/05/01 08:28:09;;;;;;;4.80;2.47;;;;;;;15.99;65.10;100228.31;4980369;28;20144;-42
2023/05/01 08:30:35;;;;;;;6.78;2.80;;;;;;;15.98;65.25;100239.66;4977205;28;20058;-43
2023/05/01 08:33:02;;;;;;;4.53;2.45;;;;;;;15.92;65.26;100238.88;4974179;28;20718;-45
2023/05/01 08:35:29;;;;;;;4.80;2.70;;;;;;;15.87;65.17;100240.72;4980652;28;20074;-45
2023/05/01 08:37:56;;;;;;;5.63;3.10;;;;;;;15.83;64.77;100239.06;4984716;28;20145;-45
2023/05/01 08:40:25;;;;;;;6.78;3.20;;;;;;;15.90;65.36;100245.88;4973711;28;20042;-50
2023/05/01 08:42:53;;;;;;;8.05;3.42;;;;;;;16.04;65.03;100242.13;4976353;28;20078;-48
2023/05/01 08:45:23;;;;;;;6.13;3.55;;;;;;;16.10;64.24;100244.59;4974966;28;20042;-45
2023/05/01 08:47:52;;;;;;;9.82;3.78;;;;;;;16.16;64.74;100257.53;4976036;28;20106;-45
2023/05/01 08:50:21;;;;;;;8.85;3.63;;;;;;;16.11;63.88;100259.38;4977806;28;20548;-44
2023/05/01 08:52:50;;;;;;;7.65;4.13;;;;;;;16.09;64.05;100255.97;4967107;28;20081;-44
2023/05/01 08:55:19;;;;;;;8.20;4.53;;;;;;;16.09;64.32;100258.56;4975333;28;20533;-44
2023/05/01 08:57:47;;;;;;;9.65;4.25;;;;;;;16.09;64.39;100250.72;4978461;28;20874;-45
2023/05/01 09:00:18;;;;;;;7.32;4.43;;;;;;;16.13;63.96;100249.75;4982006;28;20043;-45
2023/05/01 09:02:47;;;;;;;9.93;5.45;;;;;;;16.19;64.47;100248.78;4977275;28;20050;-45
2023/05/01 09:05:16;;;;;;;7.97;4.63;;;;;;;16.31;64.16;100261.53;4998567;28;20130;-46
2023/05/01 09:07:45;;;;;;;10.93;5.78;;;;;;;16.35;63.40;100262.31;4985378;28;20047;-42
2023/05/01 09:10:14;;;;;;;11.25;5.38;;;;;;;16.33;63.37;100266.75;4984977;28;20046;-43
2023/05/01 09:12:43;;;;;;;9.52;4.35;;;;;;;16.38;63.63;100264.88;4984830;28;20065;-48
2023/05/01 09:15:11;;;;;;;5.50;2.92;;;;;;;16.47;63.20;100265.53;4984799;28;20705;-44
2023/05/01 09:17:39;;;;;;;6.80;4.22;;;;;;;16.51;62.56;100267.22;4982119;28;20062;-49
2023/05/01 09:20:06;;;;;;;7.80;4.63;;;;;;;16.65;62.31;100272.94;4990599;28;20044;-46
2023/05/01 09:22:34;;;;;;;7.15;4.68;;;;;;;17.04;62.48;100276.34;4985225;28;20070;-43
2023/05/01 09:25:02;;;;;;;10.38;6.20;;;;;;;17.51;62.47;100280.38;4987182;28;20069;-51
2023/05/01 09:27:34;;;;;;;9.73;5.65;;;;;;;17.81;61.51;100280.41;4984424;28;20101;-46
2023/05/01 09:30:00;;;;;;;13.25;5.45;;;;;;;17.81;60.25;100285.66;4984063;28;20050;-41
2023/05/01 09:32:27;;;;;;;9.40;5.50;;;;;;;17.67;59.26;100284.28;4986188;28;20060;-41
2023/05/01 09:35:07;;;;;;;6.38;3.83;;;;;;;17.39;59.13;100276.34;4985806;28;20462;-46
2023/05/01 09:37:34;;;;;;;9.43;5.07;;;;;;;17.24;59.30;100283.72;4985086;28;20046;-48
2023/05/01 09:40:10;;;;;;;8.60;4.40;;;;;;;17.16;59.48;100281.28;4982376;28;20142;-48
2023/05/01 09:45:17;;;;;;;9.18;6.40;;;;;;;17.33;60.91;100290.47;5000758;27;20408;-42
2023/05/01 09:47:45;;;;;;;9.43;4.63;;;;;;;17.57;60.63;100281.06;4977081;28;20711;-42
2023/05/01 09:50:31;;;;;;;11.18;5.50;;;;;;;17.89;59.89;100286.28;4974325;28;20053;-45
2023/05/01 09:53:00;;;;;;;9.48;5.28;;;;;;;18.18;59.61;100281.97;4964868;28;20047;-45
2023/05/01 09:55:27;;;;;;;6.18;4.25;;;;;;;18.38;58.71;100288.34;4965444;28;20101;-43
2023/05/01 09:57:53;;;;;;;7.30;5.40;;;;;;;18.38;58.11;100283.09;4971938;28;20541;-45
2023/05/01 10:00:20;;;;;;;6.05;4.32;;;;;;;18.40;58.32;100291.75;4985286;28;20055;-48
2023/05/01 10:02:48;;;;;;;6.03;4.35;;;;;;;18.33;57.24;100292.84;4968941;28;20051;-45
2023/05/01 10:05:17;;;;;;;6.60;4.82;;;;;;;18.36;57.81;100290.16;4955795;28;20150;-47
2023/05/01 10:08:01;;;;;;;6.28;3.58;;;;;;;18.42;57.61;100289.97;4955566;28;20455;-50
2023/05/01 10:10:28;;;;;;;6.70;4.35;;;;;;;18.54;57.20;100282.63;4984797;28;20051;-45
2023/05/01 10:12:55;;;;;;;6.55;4.07;;;;;;;18.73;56.66;100283.72;4969301;28;20047;-49
2023/05/01 10:15:21;;;;;;;7.80;5.03;;;;;;;18.90;57.14;100284.91;4958948;28;20051;-50
2023/05/01 10:17:52;;;;;;;8.00;5.10;;;;;;;19.14;57.28;100285.00;4958861;28;20055;-46
2023/05/01 10:20:20;;;;;;;7.47;4.93;;;;;;;19.34;55.91;100288.69;4964571;28;20089;-43
2023/05/01 10:22:47;;;;;;;7.53;4.97;;;;;;;19.46;56.06;100295.28;4964652;28;20573;-49
2023/05/01 10:25:16;;;;;;;6.43;4.97;;;;;;;19.47;55.64;100284.75;4945697;28;20054;-50
2023/05/01 10:27:43;;;;;;;9.27;6.28;;;;;;;19.38;55.22;100293.78;4995083;28;20555;-48
2023/05/01 10:30:10;;;;;;;10.95;4.50;;;;;;;19.19;54.64;100290.09;4956310;28;20450;-47
2023/05/01 10:32:39;;;;;;;7.43;5.55;;;;;;;19.13;55.07;100285.94;4966943;28;20058;-47
2023/05/01 10:35:11;;;;;;;9.45;5.38;;;;;;;19.14;55.53;100290.25;4960778;28;20228;-45
2023/05/01 10:37:46;;;;;;;10.40;6.20;;;;;;;19.03;54.84;100285.34;4960488;28;20514;-47
2023/05/01 10:48:53;;;;;;;9.52;5.53;;;;;;;18.88;55.56;100292.84;5025642;28;20445;-47
2023/05/01 10:51:21;;;;;;;9.57;6.40;;;;;;;18.93;55.53;100292.69;5009755;28;20050;-50
2023/05/01 10:56:49;;;;;;;8.20;4.63;;;;;;;18.99;55.79;100305.59;5041406;27;20391;-46
2023/05/01 10:59:16;;;;;;;7.43;3.67;;;;;;;19.02;55.38;100305.50;5008659;28;20073;-49
2023/05/01 11:01:44;;;;;;;6.18;3.53;;;;;;;19.02;55.12;100302.88;5007894;28;20050;-46
2023/05/01 11:09:41;;;;;;;7.20;3.88;;;;;;;19.36;54.96;100307.91;5039211;27;20960;-52
2023/05/01 11:12:10;;;;;;;5.95;3.22;;;;;;;19.43;54.59;100304.16;5020817;28;20060;-43
2023/05/01 11:17:44;;;;;;;4.38;2.50;;;;;;;19.83;54.09;100306.22;5088462;27;20407;-47
2023/05/01 11:23:16;;;;;;;4.93;3.13;;;;;;;19.73;52.26;100303.09;5052991;28;20385;-47
2023/05/01 11:25:45;;;;;;;5.95;2.63;;;;;;;19.56;52.51;100309.81;5022031;28;21096;-49
2023/05/01 11:28:18;;;;;;;6.47;2.97;;;;;;;19.36;52.51;100314.00;5020756;28;20103;-50
2023/05/01 11:30:45;;;;;;;6.45;3.58;;;;;;;19.15;53.01;100310.34;5017971;28;20140;-45
2023/05/01 11:33:13;;;;;;;6.72;4.97;;;;;;;18.84;53.51;100316.59;5020893;28;20430;-46
2023/05/01 11:35:40;;;;;;;7.85;4.57;;;;;;;18.72;53.93;100316.13;5019608;28;20453;-51
2023/05/01 11:38:17;;;;;;;5.82;3.45;;;;;;;18.52;54.10;100310.63;5016480;28;20265;-49
2023/05/01 11:40:44;;;;;;;6.47;3.13;;;;;;;18.34;54.10;100323.44;5004169;28;20112;-43
2023/05/01 11:43:11;;;;;;;7.00;3.72;;;;;;;18.10;55.02;100331.13;5008882;28;20050;-47
2023/05/01 11:45:38;;;;;;;5.72;2.88;;;;;;;17.96;55.25;100328.88;5017676;28;20059;-46
2023/05/01 11:48:14;;;;;;;5.40;3.42;;;;;;;17.78;54.79;100335.50;5010852;28;20061;-44
2023/05/01 11:50:40;;;;;;;6.72;3.25;;;;;;;17.63;56.19;100332.41;5006840;28;20046;-48
2023/05/01 11:53:14;;;;;;;10.23;3.50;;;;;;;17.53;56.01;100338.81;5007774;28;20674;-48
2023/05/01 11:55:41;;;;;;;6.57;3.00;;;;;;;17.39;57.05;100334.78;5012530;28;20046;-45
2023/05/01 11:58:08;;;;;;;6.97;4.28;;;;;;;17.36;57.03;100332.25;5011197;28;20532;-48
2023/05/01 12:00:37;;;;;;;9.02;3.60;;;;;;;17.40;56.71;100330.44;5026376;28;20053;-41
2023/05/01 12:03:06;;;;;;;7.45;3.95;;;;;;;17.43;56.98;100330.34;5000261;28;20058;-43
2023/05/01 12:05:35;;;;;;;;;;;;;;;17.37;57.93;100320.91;5015068;28;20053;-47
2023/05/01 12:08:21;;;;;;;6.65;3.17;;;;;;;17.61;57.84;100323.75;5028021;28;20012;-44